createdAt,value
2019-03-19T18:24:15.532Z,0.87
2019-03-19T18:25:50.171Z,0.90
2019-03-19T18:27:25.867Z,1.73
2019-03-19T18:29:00.559Z,2.05
2019-03-19T18:30:35.329Z,2.65
2019-03-19T18:32:09.973Z,2.00
2019-03-19T18:33:44.637Z,2.37
2019-03-19T18:35:19.379Z,2.57
2019-03-19T18:36:53.998Z,2.33
2019-03-19T18:38:28.665Z,2.53
2019-03-19T18:40:03.409Z,2.30
2019-03-19T18:41:38.108Z,2.50
2019-03-19T18:43:12.757Z,2.50
2019-03-19T18:44:47.432Z,2.17
2019-03-19T18:46:22.133Z,2.00
2019-03-19T18:47:56.817Z,2.10
2019-03-19T18:49:31.520Z,2.10
2019-03-19T18:51:06.865Z,1.90
2019-03-19T18:52:41.507Z,1.92
2019-03-19T18:54:16.140Z,2.07
2019-03-19T18:55:50.763Z,1.60
2019-03-19T18:57:25.434Z,2.47
2019-03-19T18:59:00.098Z,2.25
2019-03-19T19:00:34.722Z,2.52
2019-03-19T19:02:09.450Z,2.12
2019-03-19T19:03:44.091Z,2.60
2019-03-19T19:05:18.748Z,2.27
2019-03-19T19:06:53.382Z,2.50
2019-03-19T19:08:28.104Z,2.22
2019-03-19T19:10:02.737Z,2.30
2019-03-19T19:11:37.366Z,2.15
2019-03-19T19:13:12.037Z,2.20
2019-03-19T19:14:46.680Z,2.45
2019-03-19T19:16:22.483Z,2.10
2019-03-19T19:17:57.111Z,2.50
2019-03-19T19:19:31.885Z,2.40
2019-03-19T19:21:06.632Z,3.20
2019-03-19T19:22:41.267Z,2.58
2019-03-19T19:24:15.958Z,3.00
2019-03-19T19:25:50.754Z,3.15
2019-03-19T19:27:26.397Z,3.92
2019-03-19T19:29:01.186Z,4.20
2019-03-19T19:30:35.888Z,4.83
2019-03-19T19:32:11.488Z,5.25
2019-03-19T19:33:46.297Z,4.90
2019-03-19T19:35:21.063Z,4.85
2019-03-19T19:36:55.704Z,5.00
2019-03-19T19:38:30.457Z,5.12
2019-03-19T19:40:05.869Z,5.10
2019-03-19T19:41:40.565Z,5.33
2019-03-19T19:43:15.399Z,5.08
2019-03-19T19:44:50.055Z,4.20
2019-03-19T19:46:24.739Z,4.58
2019-03-19T19:47:59.434Z,4.42
2019-03-19T19:49:34.018Z,4.22
2019-03-19T19:51:09.837Z,5.12
2019-03-19T19:52:44.585Z,4.50
2019-03-19T19:54:19.253Z,4.47
2019-03-19T19:55:53.939Z,4.35
2019-03-19T19:57:28.786Z,3.50
2019-03-19T19:59:03.939Z,3.75
2019-03-19T20:00:38.588Z,4.00
2019-03-19T20:02:13.293Z,3.27
2019-03-19T20:03:48.041Z,3.80
2019-03-19T20:05:22.726Z,3.17
2019-03-19T20:06:57.443Z,3.60
2019-03-19T20:08:32.121Z,3.10
2019-03-19T20:10:11.267Z,3.60
2019-03-19T20:11:45.653Z,3.65
2019-03-19T20:13:20.331Z,3.50
2019-03-19T20:14:55.067Z,3.72
2019-03-19T20:16:29.822Z,3.40
2019-03-19T20:18:04.535Z,3.00
2019-03-19T20:19:39.169Z,2.87
2019-03-19T20:21:14.910Z,3.50
2019-03-19T20:22:50.642Z,3.08
2019-03-19T20:24:25.446Z,3.33
2019-03-19T20:26:00.150Z,3.27
2019-03-19T20:27:34.799Z,3.90
2019-03-19T20:29:09.517Z,3.52
2019-03-19T20:30:44.156Z,3.35
2019-03-19T20:32:19.895Z,3.02
2019-03-19T20:33:54.660Z,2.85
2019-03-19T20:35:29.291Z,2.85
2019-03-19T20:37:04.237Z,3.05
2019-03-19T20:38:38.857Z,3.55
2019-03-19T20:40:13.868Z,3.90
2019-03-19T20:41:48.581Z,2.72
2019-03-19T20:43:24.239Z,3.25
2019-03-19T20:44:58.904Z,3.47
2019-03-19T20:46:33.632Z,4.22
2019-03-19T20:48:08.421Z,3.72
2019-03-19T20:49:47.530Z,3.80
2019-03-19T20:51:19.506Z,3.50
2019-03-19T20:52:54.232Z,3.20
2019-03-19T20:54:28.911Z,3.62
2019-03-19T20:56:03.673Z,3.27
2019-03-19T20:57:39.402Z,3.40
2019-03-19T20:59:15.942Z,3.20
2019-03-19T21:00:50.563Z,3.20
2019-03-19T21:02:25.689Z,3.10
2019-03-19T21:04:00.745Z,2.70
2019-03-19T21:05:36.495Z,2.95
2019-03-19T21:07:11.375Z,2.70
2019-03-19T21:08:46.161Z,2.77
2019-03-19T21:10:20.876Z,3.02
2019-03-19T21:11:55.553Z,3.10
2019-03-19T21:13:30.329Z,2.95
2019-03-19T21:15:05.887Z,2.77
2019-03-19T21:16:40.543Z,3.20
2019-03-19T21:18:15.208Z,3.17
2019-03-19T21:19:49.875Z,2.83
2019-03-19T21:21:24.540Z,2.92
2019-03-19T21:22:59.284Z,3.05
2019-03-19T21:24:33.986Z,3.10
2019-03-19T21:26:08.805Z,2.95
2019-03-19T21:27:43.548Z,2.98
2019-03-19T21:29:18.200Z,3.00
2019-03-19T21:30:52.851Z,3.20
2019-03-19T21:32:27.531Z,4.10
2019-03-19T21:34:02.288Z,2.90
2019-03-19T21:35:36.962Z,2.80
2019-03-19T21:37:11.669Z,2.62
2019-03-19T21:38:46.298Z,2.65
2019-03-19T21:40:21.054Z,2.70
2019-03-19T21:41:55.798Z,2.92
2019-03-19T21:43:30.462Z,2.70
2019-03-19T21:45:06.265Z,3.25
2019-03-19T21:46:40.967Z,3.12
2019-03-19T21:48:15.677Z,3.47
2019-03-19T21:49:50.347Z,2.85
2019-03-19T21:51:25.084Z,2.77
2019-03-19T21:52:59.798Z,2.72
2019-03-19T21:54:34.451Z,2.90
2019-03-19T21:56:09.169Z,3.25
2019-03-19T21:57:44.798Z,3.33
2019-03-19T21:59:19.468Z,2.77
2019-03-19T22:00:54.111Z,2.90
2019-03-19T22:02:28.826Z,3.27
2019-03-19T22:04:03.623Z,3.15
2019-03-19T22:05:38.409Z,2.90
2019-03-19T22:07:13.057Z,2.87
2019-03-19T22:08:47.725Z,2.95
2019-03-19T22:10:22.867Z,2.60
2019-03-19T22:11:57.522Z,2.70
2019-03-19T22:13:32.157Z,3.27
2019-03-19T22:15:12.121Z,3.10
2019-03-19T22:16:47.166Z,2.98
2019-03-19T22:18:21.831Z,2.47
2019-03-19T22:19:57.575Z,2.52
2019-03-19T22:21:32.283Z,2.80
2019-03-19T22:23:07.093Z,3.05
2019-03-19T22:24:41.853Z,2.20
2019-03-19T22:26:16.606Z,2.37
2019-03-19T22:27:51.341Z,2.58
2019-03-19T22:29:26.053Z,2.52
2019-03-19T22:31:00.729Z,2.08
2019-03-19T22:32:35.383Z,2.30
2019-03-19T22:34:14.021Z,1.95
2019-03-19T22:35:46.502Z,2.35
2019-03-19T22:37:21.168Z,2.40
2019-03-19T22:38:55.812Z,2.30
2019-03-19T22:40:30.555Z,1.75
2019-03-19T22:42:05.284Z,2.02
2019-03-19T22:43:39.947Z,1.85
2019-03-19T22:45:14.850Z,1.57
2019-03-19T22:46:49.503Z,2.22
2019-03-19T22:48:24.154Z,1.92
2019-03-19T22:49:58.821Z,1.50
2019-03-19T22:51:33.473Z,1.98
2019-03-19T22:53:08.136Z,2.08
2019-03-19T22:54:42.827Z,1.90
2019-03-19T22:56:17.500Z,1.90
2019-03-19T22:57:52.163Z,2.55
2019-03-19T22:59:26.822Z,1.80
2019-03-19T23:01:01.734Z,1.52
2019-03-19T23:02:38.138Z,1.90
2019-03-19T23:04:12.784Z,1.70
2019-03-19T23:05:47.489Z,1.90
2019-03-19T23:07:22.203Z,2.15
2019-03-19T23:08:56.854Z,2.10
2019-03-19T23:10:31.559Z,2.00
2019-03-19T23:12:07.901Z,2.12
2019-03-19T23:13:42.573Z,2.05
2019-03-19T23:15:17.207Z,1.45
2019-03-19T23:16:51.978Z,2.00
2019-03-19T23:18:26.726Z,1.87
2019-03-19T23:20:01.401Z,1.85
2019-03-19T23:21:36.211Z,1.92
2019-03-19T23:23:10.849Z,2.05
2019-03-19T23:24:45.555Z,1.82
2019-03-19T23:26:20.229Z,1.70
2019-03-19T23:27:55.882Z,1.92
2019-03-19T23:29:30.568Z,2.10
2019-03-19T23:31:05.330Z,1.95
2019-03-19T23:32:39.990Z,1.70
2019-03-19T23:34:14.676Z,1.92
2019-03-19T23:35:49.419Z,1.65
2019-03-19T23:37:24.202Z,2.27
2019-03-19T23:38:58.877Z,1.75
2019-03-19T23:40:34.662Z,2.12
2019-03-19T23:42:09.319Z,1.80
2019-03-19T23:43:43.958Z,1.80
2019-03-19T23:45:20.953Z,2.10
2019-03-19T23:46:57.599Z,2.17
2019-03-19T23:48:32.055Z,1.67
2019-03-19T23:50:08.780Z,1.92
2019-03-19T23:51:43.527Z,1.75
2019-03-19T23:53:18.221Z,1.87
2019-03-19T23:54:52.894Z,2.25
2019-03-19T23:56:27.693Z,1.98
2019-03-19T23:58:02.433Z,1.82
2019-03-19T23:59:37.060Z,1.87
